x

South Brooks (46132) Wave Buoy

10:00 - Thu 26th Mar 2015 All times are PDT. -7 hours from GMT.

  • Sig Wave height 10.2ft
  • Peak Period 12s
  • Wind
    25mph, 29mph gusts
  • Sea Temp 51°f
  • Luft Temp 52°f
  • Sea Pressure 1016mb
  • South Brooks
  • South Brooks

More Historic Weather Station data

Upgrade to MSW Pro to gain access to the past 30 days of data for over 8000 Wavebouys and Weather Stations around the globe.

Join Pro

Comparision Forecast

View Surf forecast
   
Do 03/26 10:00 10ft 12s 25 29 mph 1016mb 51f 52f
9:00 10ft 12s 25 29 mph 1016.6mb 51f 52f
8:00 10ft 12s 22 27 mph 1016.7mb 51f 52f
7:00 10ft 11s 22 27 mph 1016.8mb 51f 52f
6:00 11ft 12s 22 27 mph 1017.2mb 51f 52f
5:00 10ft 11s 22 27 mph 1017.7mb 51f 52f
4:00 10ft 12s 22 25 mph 1018.3mb 51f 52f
3:00 9.5ft 11s 22 27 mph 1018.6mb 51f 52f
2:00 9.5ft 12s 22 25 mph 1019mb 51f 52f
1:00 8.5ft 11s 20 22 mph 1019mb 51f 52f
12:00 9ft 11s 18 20 mph 1019.5mb 51f 52f
11:00 9.5ft 11s 18 22 mph 1019.6mb 51f 52f
10:00 10ft 11s 16 18 mph 1019.7mb 51f 52f
9:00 10.5ft 11s 16 18 mph 1019.2mb 51f 52f
8:00 10ft 11s 18 20 mph 1019mb 51f 52f
7:00 9.5ft 10s 18 22 mph 1018.8mb 51f 52f
6:00 10ft 11s 18 22 mph 1018.3mb 51f 52f
5:00 10ft 11s 20 25 mph 1018.2mb 51f 52f
4:00 10ft 11s 20 27 mph 1018mb 51f 52f
3:00 9.5ft 12s 22 27 mph 1018.1mb 51f 52f
2:00 9ft 12s 22 27 mph 1017.5mb 51f 52f
1:00 9ft 11s 22 27 mph 1017.4mb 51f 52f
12:00 8ft 10s 22 27 mph 1017.4mb 51f 52f
Mi 03/25 11:00 8ft 11s 20 22 mph 1017.3mb 51f 52f
10:00 9ft 11s 18 20 mph 1017.6mb 51f 52f
9:00 10ft 10s 18 20 mph 1017mb 51f 52f
8:00 10ft 10s 16 18 mph 1016.5mb 51f 52f
7:00 10ft 10s 18 22 mph 1016.4mb 51f 52f
6:00 10ft 10s 16 18 mph 1016.3mb 51f 52f
5:00 10ft 10s 16 20 mph 1016.4mb 51f 52f
4:00 9.5ft 11s 16 18 mph 1016.3mb 51f 52f
3:00 9ft 8s 16 20 mph 1016mb 51f 52f
2:00 9.5ft 8s 13 18 mph 1015.9mb 51f 52f
1:00 9ft 8s 13 16 mph 1015.5mb 51f 52f
12:00 9ft 9s 13
mph
1015.2mb 51f 51f
11:00 9ft 8s 9 13 mph 1015mb 51f 51f
10:00 10ft 8s 11 13 mph 1014.2mb 51f 51f
9:00 10.5ft 9s 9 11 mph 1013.8mb 51f 51f
8:00 11.5ft 9s 9 13 mph 1012.7mb 51f 51f
7:00 13ft 9s 13 18 mph 1012.1mb 51f 51f
6:00 14ft 8s 22 27 mph 1011.2mb 51f 51f
5:00 15ft 9s 25 31 mph 1010.6mb 51f 50f
4:00 14.5ft 8s 29 36 mph 1010.3mb 51f 50f
3:00 16.5ft 9s 36 45 mph 1010.3mb 51f 49f
2:00 15ft 8s 38 47 mph 1010.5mb 51f 49f
1:00 15ft 7s 40 54 mph 1010.9mb 51f 49f
12:00 14ft 7s 40 49 mph 1011.8mb 51f 49f
Di 03/24 11:00  -   -  36
mph
- - -
10:00 10ft 7s 36 43 mph 1013.6mb 51f 49f
9:00 9ft 6s 34 43 mph 1014.6mb 51f 48f
8:00 8ft 11s 31 40 mph 1015.4mb 51f 49f
7:00 7ft 11s 27 34 mph 1016.1mb 51f 49f
6:00 7ft 11s 27 31 mph 1016.6mb 51f 50f
5:00 7.5ft 12s 22 27 mph 1017.8mb 51f 49f
4:00 7ft 11s 18 22 mph 1018.7mb 51f 49f
3:00 7ft 11s 18 25 mph 1018.5mb 51f 48f
2:00 7.5ft 11s 18 22 mph 1018.7mb 51f 49f
1:00 7ft 12s 18 22 mph 1018.6mb 51f 49f
12:00 7.5ft 12s 16 18 mph 1018.4mb 51f 49f
11:00 6.5ft 12s 13 16 mph 1018.3mb 51f 48f
10:00 6.5ft 13s 11 13 mph 1018.1mb 51f 48f
9:00 6ft 12s 9 13 mph 1017.6mb 51f 48f
8:00 6ft 13s 9 11 mph 1017.1mb 51f 48f
7:00 6.5ft 12s 7 9 mph 1016.5mb 51f 47f
6:00 7ft 13s 4 7 mph 1015.9mb 51f 48f
5:00 8ft 13s 4 7 mph 1015.5mb 51f 47f
4:00 8.5ft 12s 4
mph
1015mb 51f 47f
3:00 7.5ft 12s 2 4 mph 1014.8mb 51f 47f
2:00 8.5ft 12s 2 4 mph 1014.1mb 51f 47f
1:00 8.5ft 12s 4 7 mph 1013.7mb 51f 46f
12:00 9ft 12s 4 7 mph 1013.5mb 51f 46f
Mo 03/23 11:00 7.5ft 12s 2 4 mph 1013.4mb 51f 46f
10:00 8ft 12s 2 4 mph 1013.2mb 51f 45f
9:00 7.5ft 12s  -  4 mph 1013.1mb 51f 45f
8:00 8ft 12s 4 7 mph 1012.7mb 51f 45f
7:00 8ft 12s 7 9 mph 1012.4mb 51f 45f
6:00 7.5ft 12s 4 7 mph 1012.3mb 51f 45f
5:00 7ft 12s 4
mph
1012.4mb 51f 45f
4:00 8ft 13s 4 7 mph 1012.2mb 51f 46f
3:00 8.5ft 13s 9 13 mph 1012mb 51f 46f
2:00 9ft 14s 4 9 mph 1012.4mb 51f 47f
1:00 8ft 14s 7 9 mph 1012.6mb 51f 47f
12:00 9ft 12s 11 16 mph 1012.6mb 51f 49f
11:00 8.5ft 14s 13 18 mph 1012.5mb 51f 49f
10:00 8ft 14s 9 13 mph 1012.4mb 51f 48f
9:00 9ft 12s 11 16 mph 1012.3mb 51f 47f
8:00 9.5ft 13s 18 20 mph 1011.7mb 51f 48f
7:00 10ft 11s 16 20 mph 1011.6mb 51f 48f